Time;durP1;ratioP1;P1;durP2;ratioP2;P2;SDS_P1;SDS_P2;PMS_P1;PMS_P2;Temp;Humidity;BMP_temperature;BMP_pressure;BME280_temperature;BME280_humidity;BME280_pressure;Samples;Min_cycle;Max_cycle;Signal;HPM_P1;HPM_P2
2022/05/18 00:00:34;;;;;;;4.25;3.85;;;;;;;17.99;64.64;94789.53;5118588;28;20198;-65
2022/05/18 00:03:04;;;;;;;4.45;4.05;;;;;;;17.96;64.76;94790.34;5118568;28;20184;-65
2022/05/18 00:05:33;;;;;;;4.15;3.75;;;;;;;17.93;65.25;94778.00;5118588;28;20180;-65
2022/05/18 00:08:00;;;;;;;4.60;3.53;;;;;;;17.91;64.42;94776.84;5118606;28;20203;-65
2022/05/18 00:10:27;;;;;;;4.70;3.85;;;;;;;17.93;65.65;94780.78;5116934;28;20195;-65
2022/05/18 00:12:54;;;;;;;3.97;3.67;;;;;;;17.93;64.67;94771.63;5117470;28;20196;-65
2022/05/18 00:15:22;;;;;;;4.00;3.70;;;;;;;17.92;64.70;94768.03;5118394;28;20184;-65
2022/05/18 00:17:49;;;;;;;4.05;3.75;;;;;;;17.96;64.27;94770.81;5118290;28;20196;-65
2022/05/18 00:20:18;;;;;;;3.95;3.65;;;;;;;17.94;63.97;94770.44;5117472;28;20196;-65
2022/05/18 00:22:48;;;;;;;4.28;3.88;;;;;;;17.90;63.79;94773.25;5100703;28;20210;-66
2022/05/18 00:25:16;;;;;;;3.97;3.78;;;;;;;17.89;64.13;94770.84;5117041;28;20206;-65
2022/05/18 00:27:43;;;;;;;4.20;3.90;;;;;;;17.89;64.47;94779.22;5118333;28;20188;-66
2022/05/18 00:30:12;;;;;;;4.20;3.90;;;;;;;17.86;65.18;94777.25;5118161;28;20184;-65
2022/05/18 00:32:39;;;;;;;3.85;3.53;;;;;;;17.86;64.98;94775.25;5117470;28;20190;-65
2022/05/18 00:35:07;;;;;;;4.18;3.88;;;;;;;17.85;66.25;94779.25;5118437;28;20215;-65
2022/05/18 00:37:34;;;;;;;4.50;4.10;;;;;;;17.82;65.42;94784.84;5117674;28;20487;-65
2022/05/18 00:40:03;;;;;;;4.57;4.18;;;;;;;17.82;66.42;94782.84;5117578;28;20195;-65
2022/05/18 00:42:30;;;;;;;3.95;3.65;;;;;;;17.73;64.84;94786.06;5117290;28;20246;-65
2022/05/18 00:44:57;;;;;;;4.60;4.28;;;;;;;17.70;64.74;94791.66;5116997;28;20198;-65
2022/05/18 00:47:24;;;;;;;4.43;4.13;;;;;;;17.72;65.39;94790.06;5117469;28;20195;-65
2022/05/18 00:49:54;;;;;;;4.72;4.40;;;;;;;17.72;64.85;94790.06;5116935;28;20212;-65
2022/05/18 00:52:25;;;;;;;4.55;4.25;;;;;;;17.71;65.75;94796.81;5117615;28;20596;-65
2022/05/18 00:54:52;;;;;;;4.75;4.35;;;;;;;17.66;64.79;94797.25;5116754;28;20191;-65
2022/05/18 00:57:23;;;;;;;4.75;4.35;;;;;;;17.62;64.96;94790.88;5117818;28;20200;-66
2022/05/18 00:59:54;;;;;;;4.70;4.30;;;;;;;17.62;64.95;94790.88;5117244;28;20172;-66
2022/05/18 01:02:23;;;;;;;4.57;4.18;;;;;;;17.62;64.68;94798.47;5116503;28;20199;-65
2022/05/18 01:04:52;;;;;;;4.70;4.35;;;;;;;17.60;64.37;94787.69;5116368;28;20203;-65
2022/05/18 01:07:22;;;;;;;4.38;4.07;;;;;;;17.56;64.55;94784.91;5117003;28;20192;-65
2022/05/18 01:09:50;;;;;;;4.47;4.18;;;;;;;17.51;64.72;94784.56;5116283;28;20262;-66
2022/05/18 01:12:18;;;;;;;4.70;4.30;;;;;;;17.46;64.62;94779.38;5116410;28;20204;-65
2022/05/18 01:14:48;;;;;;;4.03;3.83;;;;;;;17.45;64.68;94789.75;5117133;28;20631;-65
2022/05/18 01:17:18;;;;;;;4.25;3.95;;;;;;;17.41;64.99;94788.97;5117184;28;20199;-65
2022/05/18 01:19:46;;;;;;;4.53;4.13;;;;;;;17.38;65.02;94786.19;5116839;28;20189;-65
2022/05/18 01:22:21;;;;;;;4.70;4.30;;;;;;;17.39;64.88;94782.19;5116050;28;20198;-65
2022/05/18 01:24:55;;;;;;;4.45;4.05;;;;;;;17.37;64.81;94774.25;5116066;28;20199;-65
2022/05/18 01:27:23;;;;;;;4.28;3.90;;;;;;;17.35;64.83;94768.28;5116148;28;20196;-65
2022/05/18 01:29:51;;;;;;;4.43;4.10;;;;;;;17.37;64.78;94774.25;5116313;28;20212;-66
2022/05/18 01:32:18;;;;;;;4.30;4.00;;;;;;;17.38;64.67;94767.47;5116829;28;20188;-65
2022/05/18 01:34:45;;;;;;;4.43;4.00;;;;;;;17.36;64.63;94760.72;5115914;28;20252;-66
2022/05/18 01:37:13;;;;;;;4.47;4.18;;;;;;;17.31;64.78;94759.94;5116495;28;20180;-65
2022/05/18 01:39:44;;;;;;;3.90;3.60;;;;;;;17.32;65.12;94755.97;5116207;28;20180;-65
2022/05/18 01:42:18;;;;;;;4.35;4.00;;;;;;;17.36;64.92;94752.34;5116750;28;20243;-66
2022/05/18 01:44:46;;;;;;;4.90;4.55;;;;;;;17.37;64.70;94753.94;5115433;28;20207;-66
2022/05/18 01:47:13;;;;;;;4.40;4.00;;;;;;;17.34;64.71;94747.19;5116892;27;20188;-66
2022/05/18 01:49:41;;;;;;;4.57;4.18;;;;;;;17.31;64.72;94745.19;5116145;28;20547;-66
2022/05/18 01:52:10;;;;;;;4.00;3.70;;;;;;;17.28;64.91;94752.41;5115879;28;20202;-66
2022/05/18 01:54:38;;;;;;;4.50;4.10;;;;;;;17.28;64.69;94751.56;5116276;28;20214;-65
2022/05/18 01:57:06;;;;;;;4.32;3.92;;;;;;;17.30;64.60;94744.41;5117091;28;20222;-65
2022/05/18 01:59:32;;;;;;;3.92;3.72;;;;;;;17.26;63.91;94740.84;5116380;28;20204;-65
2022/05/18 02:02:01;;;;;;;4.00;3.70;;;;;;;17.25;63.31;94749.63;5115230;28;20195;-66
2022/05/18 02:04:31;;;;;;;3.75;3.45;;;;;;;17.25;63.42;94739.25;5116162;28;20190;-66
2022/05/18 02:06:59;;;;;;;3.47;3.28;;;;;;;17.27;63.29;94750.78;5115342;28;20302;-66
2022/05/18 02:09:26;;;;;;;3.28;3.00;;;;;;;17.23;62.95;94752.78;5114905;28;20231;-66
2022/05/18 02:11:53;;;;;;;3.17;2.97;;;;;;;17.22;62.71;94744.84;5116341;28;20180;-66
2022/05/18 02:14:21;;;;;;;3.22;3.03;;;;;;;17.20;62.46;94736.09;5116365;28;20183;-66
2022/05/18 02:16:48;;;;;;;3.42;3.13;;;;;;;17.18;62.53;94738.50;5116091;28;20188;-65
2022/05/18 02:19:16;;;;;;;3.17;2.80;;;;;;;17.09;62.58;94736.91;5116025;28;20195;-65
2022/05/18 02:21:43;;;;;;;3.13;2.80;;;;;;;17.05;62.43;94741.69;5116020;28;20199;-65
2022/05/18 02:24:10;;;;;;;3.70;3.40;;;;;;;17.03;62.58;94748.88;5116028;28;20180;-65
2022/05/18 02:26:38;;;;;;;3.25;3.00;;;;;;;17.00;62.61;94749.69;5114976;28;20196;-65
2022/05/18 02:29:05;;;;;;;2.97;2.78;;;;;;;16.98;62.83;94752.06;5115378;28;20221;-65
2022/05/18 02:31:32;;;;;;;2.83;2.63;;;;;;;17.04;62.80;94756.06;5114958;28;20218;-65
2022/05/18 02:33:59;;;;;;;2.95;2.75;;;;;;;17.04;62.64;94742.91;5115672;28;20183;-65
2022/05/18 02:36:27;;;;;;;2.67;2.47;;;;;;;17.02;62.66;94733.34;5115145;28;20562;-65
2022/05/18 02:38:54;;;;;;;2.70;2.50;;;;;;;17.03;62.52;94741.31;5115711;28;20190;-65
2022/05/18 02:41:21;;;;;;;3.05;2.78;;;;;;;17.03;62.56;94743.28;5115140;28;20235;-65
2022/05/18 02:43:48;;;;;;;3.38;3.10;;;;;;;17.07;62.66;94738.53;5115728;28;20496;-65
2022/05/18 02:46:18;;;;;;;3.30;3.00;;;;;;;17.11;62.27;94741.31;5115740;28;20194;-65
2022/05/18 02:48:46;;;;;;;3.55;3.28;;;;;;;17.17;62.29;94739.69;5114923;28;20204;-65
2022/05/18 02:51:14;;;;;;;3.55;3.22;;;;;;;17.20;62.18;94736.09;5114441;28;20199;-65
2022/05/18 02:53:43;;;;;;;3.30;3.00;;;;;;;17.20;61.99;94750.03;5114585;28;20191;-65
2022/05/18 02:56:11;;;;;;;3.13;2.83;;;;;;;17.18;62.31;94744.88;5115673;28;20210;-66
2022/05/18 02:58:40;;;;;;;3.70;3.40;;;;;;;17.23;63.19;94740.84;5114686;28;20200;-66
2022/05/18 03:01:07;;;;;;;4.47;3.50;;;;;;;17.25;62.93;94747.63;5115630;28;20184;-66
2022/05/18 03:03:34;;;;;;;3.88;3.58;;;;;;;17.25;62.81;94746.84;5115279;28;20191;-65
2022/05/18 03:06:03;;;;;;;4.22;3.85;;;;;;;17.24;63.13;94750.81;5114903;28;20199;-64
2022/05/18 03:08:30;;;;;;;4.07;3.67;;;;;;;17.25;62.84;94753.19;5114620;28;20188;-65
2022/05/18 03:10:58;;;;;;;4.13;3.83;;;;;;;17.29;62.97;94758.75;5115021;28;20546;-64
2022/05/18 03:13:25;;;;;;;4.60;4.20;;;;;;;17.35;62.62;94753.56;5115654;28;20191;-64
2022/05/18 03:15:52;;;;;;;4.65;4.22;;;;;;;17.39;62.34;94760.69;5114476;28;20191;-64
2022/05/18 03:18:19;;;;;;;5.00;4.60;;;;;;;17.40;62.57;94767.88;5115113;28;20192;-64
2022/05/18 03:23:35;;;;;;;5.47;5.03;;;;;;;17.47;62.43;94765.06;5114265;28;20188;-67
2022/05/18 03:26:05;;;;;;;5.32;4.93;;;;;;;17.51;62.41;94762.25;5114520;28;20200;-67
2022/05/18 03:28:32;;;;;;;5.43;4.93;;;;;;;17.54;62.46;94772.59;5115299;28;20184;-66
2022/05/18 03:30:58;;;;;;;5.55;5.05;;;;;;;17.52;62.45;94764.63;5113966;28;20223;-66
2022/05/18 03:33:26;;;;;;;5.72;5.22;;;;;;;17.55;62.54;94769.41;5114841;28;20515;-66
2022/05/18 03:35:53;;;;;;;6.10;5.43;;;;;;;17.58;62.65;94767.81;5114379;28;20211;-66
2022/05/18 03:38:20;;;;;;;5.90;5.40;;;;;;;17.54;62.82;94767.03;5114371;28;20199;-65
2022/05/18 03:40:47;;;;;;;6.50;5.90;;;;;;;17.57;62.66;94771.78;5114142;28;20235;-66
2022/05/18 03:43:16;;;;;;;5.50;5.03;;;;;;;17.63;62.84;94775.75;5114676;28;20199;-68
2022/05/18 03:45:42;;;;;;;5.60;5.10;;;;;;;17.62;62.52;94776.94;5115333;28;20196;-67
2022/05/18 03:48:11;;;;;;;5.43;5.03;;;;;;;17.59;63.07;94779.75;5118847;28;20180;-67
2022/05/18 03:50:39;;;;;;;5.78;5.28;;;;;;;17.55;63.10;94768.59;5117512;28;20241;-67
2022/05/18 03:53:07;;;;;;;5.90;4.90;;;;;;;17.51;62.95;94790.94;5117900;28;20199;-66
2022/05/18 03:55:34;;;;;;;5.97;5.20;;;;;;;17.52;63.26;94780.56;5118801;28;20211;-66
2022/05/18 03:58:01;;;;;;;5.50;5.00;;;;;;;17.49;63.35;94792.53;5118435;28;20183;-66
2022/05/18 04:00:30;;;;;;;5.85;5.25;;;;;;;17.46;63.93;94788.53;5118161;28;20188;-66
2022/05/18 04:02:57;;;;;;;5.20;4.80;;;;;;;17.45;63.71;94786.97;5117405;28;20196;-66
2022/05/18 04:05:24;;;;;;;5.75;5.25;;;;;;;17.45;63.59;94783.38;5118531;28;20192;-66
2022/05/18 04:07:51;;;;;;;5.30;4.78;;;;;;;17.47;63.58;94784.56;5117653;28;20195;-66
2022/05/18 04:10:18;;;;;;;5.97;5.47;;;;;;;17.51;63.62;94790.13;5117772;28;20212;-66
2022/05/18 04:12:45;;;;;;;5.80;5.30;;;;;;;17.51;63.44;94792.94;5117460;28;20214;-66
2022/05/18 04:15:16;;;;;;;5.20;4.80;;;;;;;17.46;63.98;94793.31;5117148;28;20199;-66
2022/05/18 04:17:45;;;;;;;5.38;4.97;;;;;;;17.45;64.64;94791.75;5117418;28;20294;-66
2022/05/18 04:20:13;;;;;;;4.75;4.40;;;;;;;17.45;64.70;94798.13;5117348;28;20511;-66
2022/05/18 04:22:40;;;;;;;5.47;5.07;;;;;;;17.46;64.97;94804.47;5117929;28;20600;-66
2022/05/18 04:25:08;;;;;;;5.22;4.82;;;;;;;17.46;64.95;94805.28;5117284;28;20199;-66
2022/05/18 04:27:35;;;;;;;5.13;4.68;;;;;;;17.44;65.13;94796.53;5117167;28;20595;-66
2022/05/18 04:30:03;;;;;;;5.10;4.70;;;;;;;17.42;65.33;94796.13;5116837;28;20222;-66
2022/05/18 04:32:30;;;;;;;4.95;4.60;;;;;;;17.39;65.65;94798.94;5117466;28;20184;-66
2022/05/18 04:34:58;;;;;;;5.35;4.95;;;;;;;17.40;65.34;94806.13;5118042;28;20187;-66
2022/05/18 04:37:25;;;;;;;5.63;5.20;;;;;;;17.39;65.32;94798.94;5117625;28;20270;-66
2022/05/18 04:39:52;;;;;;;6.10;5.50;;;;;;;17.37;65.16;94806.91;5117268;28;20222;-66
2022/05/18 04:42:22;;;;;;;6.03;5.53;;;;;;;17.37;65.54;94802.13;5116746;28;20235;-66
2022/05/18 04:44:49;;;;;;;5.70;5.20;;;;;;;17.36;65.54;94803.34;5117877;28;20274;-66
2022/05/18 04:47:16;;;;;;;6.07;5.55;;;;;;;17.36;65.28;94810.88;5117533;28;20262;-66
2022/05/18 04:49:43;;;;;;;6.65;5.95;;;;;;;17.40;65.72;94808.91;5116559;28;20218;-66
2022/05/18 04:52:11;;;;;;;6.35;5.85;;;;;;;17.35;65.89;94804.50;5116530;28;20191;-66
2022/05/18 04:54:38;;;;;;;6.25;5.75;;;;;;;17.37;65.81;94804.91;5116718;28;20199;-66
2022/05/18 04:57:05;;;;;;;6.85;6.25;;;;;;;17.38;66.10;94812.06;5116305;28;20206;-66
2022/05/18 04:59:32;;;;;;;6.80;6.13;;;;;;;17.35;66.06;94807.31;5116404;28;20192;-66
2022/05/18 05:01:59;;;;;;;6.63;6.05;;;;;;;17.36;66.77;94806.13;5116251;28;20199;-66
2022/05/18 05:04:26;;;;;;;7.60;6.78;;;;;;;17.37;66.82;94807.72;5116677;28;20607;-66
2022/05/18 05:06:52;;;;;;;6.95;6.40;;;;;;;17.34;66.35;94814.09;5116230;28;20197;-66
2022/05/18 05:09:22;;;;;;;7.00;6.50;;;;;;;17.31;66.79;94815.69;5116551;28;20196;-66
2022/05/18 05:11:49;;;;;;;6.95;6.35;;;;;;;17.32;67.01;94819.28;5116364;28;20199;-66
2022/05/18 05:14:16;;;;;;;8.40;7.72;;;;;;;17.32;67.23;94816.50;5116415;28;20199;-66
2022/05/18 05:16:43;;;;;;;7.53;6.85;;;;;;;17.28;67.18;94815.69;5115963;28;20195;-66
2022/05/18 05:19:10;;;;;;;7.38;6.78;;;;;;;17.26;67.20;94816.09;5116062;28;20195;-66
2022/05/18 05:21:41;;;;;;;8.13;7.43;;;;;;;17.26;67.50;94824.47;5115982;28;20608;-66
2022/05/18 05:24:08;;;;;;;8.07;7.30;;;;;;;17.24;67.49;94820.47;5117087;28;20247;-66
2022/05/18 05:26:37;;;;;;;7.38;6.78;;;;;;;17.22;67.62;94826.47;5116943;28;20184;-66
2022/05/18 05:29:04;;;;;;;7.57;6.88;;;;;;;17.23;68.13;94828.03;5116367;28;20192;-66
2022/05/18 05:31:31;;;;;;;7.18;6.57;;;;;;;17.23;68.48;94830.03;5116121;28;20211;-66
2022/05/18 05:33:58;;;;;;;7.35;6.63;;;;;;;17.24;69.00;94834.41;5116864;28;20225;-66
2022/05/18 05:36:26;;;;;;;7.15;6.55;;;;;;;17.22;68.68;94834.81;5116065;28;20191;-66
2022/05/18 05:38:53;;;;;;;6.43;5.93;;;;;;;17.20;68.06;94836.41;5115846;28;20526;-66
2022/05/18 05:41:20;;;;;;;6.70;6.10;;;;;;;17.21;68.54;94841.59;5116870;28;20238;-66
2022/05/18 05:43:50;;;;;;;7.38;6.65;;;;;;;17.20;69.21;94837.19;5116040;28;20188;-66
2022/05/18 05:46:17;;;;;;;8.18;7.47;;;;;;;17.19;69.45;94845.97;5116891;28;20251;-66
2022/05/18 05:48:46;;;;;;;7.47;6.80;;;;;;;17.09;69.55;94853.16;5115397;28;20199;-66
2022/05/18 05:51:13;;;;;;;7.90;7.20;;;;;;;17.05;70.08;94852.34;5098501;28;20254;-66
2022/05/18 05:53:40;;;;;;;8.00;7.30;;;;;;;17.03;70.77;94863.09;5115467;28;20210;-66
2022/05/18 05:56:07;;;;;;;8.13;7.35;;;;;;;17.00;71.15;94856.34;5115866;28;20591;-66
2022/05/18 05:58:35;;;;;;;7.85;7.13;;;;;;;16.99;71.18;94865.09;5116347;28;20199;-66
2022/05/18 06:01:04;;;;;;;7.25;6.55;;;;;;;16.99;71.51;94865.09;5116371;28;20184;-66
2022/05/18 06:03:31;;;;;;;7.93;7.22;;;;;;;16.97;71.95;94871.06;5115492;28;20207;-66
2022/05/18 06:05:58;;;;;;;7.55;6.85;;;;;;;16.92;71.71;94870.66;5115780;28;20196;-66
2022/05/18 06:08:25;;;;;;;6.82;6.32;;;;;;;16.92;72.55;94874.28;5114429;28;20619;-66
2022/05/18 06:10:52;;;;;;;7.88;6.53;;;;;;;16.89;72.41;94877.84;5116080;28;20231;-66
2022/05/18 06:13:19;;;;;;;7.80;7.10;;;;;;;16.83;72.85;94883.00;5116223;28;20190;-66
2022/05/18 06:15:47;;;;;;;6.20;5.70;;;;;;;16.78;72.62;94883.41;5116151;28;20237;-66
2022/05/18 06:18:15;;;;;;;6.72;6.07;;;;;;;16.70;72.96;94876.19;5116297;28;20191;-66
2022/05/18 06:20:42;;;;;;;7.00;6.40;;;;;;;16.67;73.39;94874.25;5115740;28;20187;-66
2022/05/18 06:23:10;;;;;;;6.93;5.70;;;;;;;16.60;73.96;94883.38;5115240;28;20267;-66
2022/05/18 06:25:37;;;;;;;5.90;5.40;;;;;;;16.59;74.15;94884.56;5116025;28;20198;-66
2022/05/18 06:28:05;;;;;;;6.55;5.65;;;;;;;16.60;73.91;94888.16;5115676;28;20188;-66
2022/05/18 06:30:32;;;;;;;5.97;5.45;;;;;;;16.59;73.86;94892.94;5115994;28;20214;-66
2022/05/18 06:32:59;;;;;;;5.93;5.43;;;;;;;16.61;73.63;94887.75;5114997;28;20188;-66
2022/05/18 06:35:27;;;;;;;7.07;6.38;;;;;;;16.64;73.96;94891.72;5115508;28;20643;-66
2022/05/18 06:37:54;;;;;;;5.45;5.05;;;;;;;16.65;73.56;94895.31;5115470;28;20195;-66
2022/05/18 06:41:21;;;;;;;5.95;5.45;;;;;;;16.64;73.63;94902.88;5115462;28;20213;-66
2022/05/18 06:43:08;;;;;;;6.35;5.78;;;;;;;16.66;73.64;94889.34;5114370;28;20211;-66
2022/05/18 06:45:35;;;;;;;5.85;5.35;;;;;;;16.66;73.21;94886.53;5115923;28;20184;-66
2022/05/18 06:48:01;;;;;;;5.82;5.40;;;;;;;16.64;73.02;94897.31;5115649;28;20199;-66
2022/05/18 06:50:30;;;;;;;6.18;5.57;;;;;;;16.66;73.01;94902.47;5114644;28;20223;-66
2022/05/18 06:52:56;;;;;;;6.20;5.60;;;;;;;16.70;73.31;94906.84;5114903;28;20635;-66
2022/05/18 06:55:23;;;;;;;6.07;5.57;;;;;;;16.73;72.81;94903.25;5114964;28;20199;-66
2022/05/18 06:57:50;;;;;;;6.50;6.00;;;;;;;16.76;73.57;94908.06;5115717;28;20184;-66
2022/05/18 07:00:17;;;;;;;6.55;5.95;;;;;;;16.75;73.18;94906.50;5114895;28;20199;-66
2022/05/18 07:02:44;;;;;;;6.80;6.30;;;;;;;16.79;74.00;94901.72;5115161;28;20192;-66
2022/05/18 07:05:11;;;;;;;7.95;7.35;;;;;;;16.81;74.02;94904.09;5115591;28;20180;-66
2022/05/18 07:07:39;;;;;;;6.75;6.25;;;;;;;16.82;73.48;94914.84;5097511;28;20276;-66
2022/05/18 07:10:07;;;;;;;7.20;6.60;;;;;;;16.84;72.52;94909.66;5114741;28;20199;-66
2022/05/18 07:12:37;;;;;;;7.95;7.32;;;;;;;16.88;72.87;94909.66;5114478;28;20199;-66
2022/05/18 07:15:05;;;;;;;6.35;5.85;;;;;;;16.89;72.57;94908.50;5115378;28;20198;-66
2022/05/18 07:17:32;;;;;;;6.22;5.68;;;;;;;16.91;72.34;94924.78;5114501;28;20634;-66
2022/05/18 07:19:59;;;;;;;6.85;6.30;;;;;;;16.95;73.14;94926.38;5116460;28;20187;-66
2022/05/18 07:22:26;;;;;;;7.07;6.53;;;;;;;16.98;72.30;94924.81;5118606;28;20195;-66
2022/05/18 07:24:56;;;;;;;7.88;7.10;;;;;;;17.02;72.77;94925.59;5118542;28;20191;-66
2022/05/18 07:27:23;;;;;;;7.47;6.82;;;;;;;17.03;72.76;94921.59;5119431;28;20187;-66
2022/05/18 07:29:50;;;;;;;7.63;6.80;;;;;;;17.03;72.53;94932.75;5118422;28;20204;-66
2022/05/18 07:32:16;;;;;;;7.95;7.18;;;;;;;17.03;72.03;94919.63;5119391;28;20634;-66
2022/05/18 07:34:44;;;;;;;8.02;7.22;;;;;;;17.05;72.28;94922.00;5118834;28;20587;-66
2022/05/18 07:37:11;;;;;;;8.80;8.07;;;;;;;17.03;71.83;94936.34;5119167;28;20191;-66
2022/05/18 07:39:39;;;;;;;8.10;7.40;;;;;;;17.05;71.30;94935.94;5118814;28;20188;-66
2022/05/18 07:42:09;;;;;;;9.18;8.27;;;;;;;17.08;72.26;94940.72;5118752;28;20239;-66
2022/05/18 07:44:37;;;;;;;9.15;8.32;;;;;;;17.12;72.29;94944.31;5118103;28;20202;-66
2022/05/18 07:47:05;;;;;;;8.27;7.57;;;;;;;17.17;72.14;94943.09;5118440;28;20253;-66
2022/05/18 07:49:35;;;;;;;8.82;8.02;;;;;;;17.22;72.57;94946.31;5118968;28;20230;-66
2022/05/18 07:52:02;;;;;;;8.07;7.38;;;;;;;17.23;71.66;94949.88;5118806;28;20276;-66
2022/05/18 07:54:29;;;;;;;7.85;7.20;;;;;;;17.23;70.86;94941.53;5118066;28;20199;-66
2022/05/18 07:56:56;;;;;;;8.07;7.38;;;;;;;17.27;71.55;94948.69;5117850;28;20210;-66
2022/05/18 07:59:24;;;;;;;9.63;8.82;;;;;;;17.29;70.84;94949.09;5118373;28;20198;-66
2022/05/18 08:01:51;;;;;;;15.50;14.10;;;;;;;17.29;70.27;94951.88;5119148;28;20176;-66
2022/05/18 08:04:19;;;;;;;18.98;17.38;;;;;;;17.36;70.45;94955.84;5117763;28;20286;-66
2022/05/18 08:06:45;;;;;;;18.00;16.33;;;;;;;17.38;70.44;94947.88;5117733;28;20192;-66
2022/05/18 08:09:12;;;;;;;14.43;13.13;;;;;;;17.43;70.49;94945.50;5118411;28;20188;-66
2022/05/18 08:17:09;;;;;;;8.35;7.65;;;;;;;17.49;69.37;94957.81;5117246;28;20195;-66
2022/05/18 08:19:36;;;;;;;7.57;6.88;;;;;;;17.48;69.18;94959.03;5117319;28;20199;-66
2022/05/18 08:22:03;;;;;;;7.65;6.95;;;;;;;17.49;69.42;94960.59;5118329;28;20191;-66
2022/05/18 08:24:30;;;;;;;9.02;8.23;;;;;;;17.53;70.32;94964.19;5118263;28;20184;-66
2022/05/18 08:26:57;;;;;;;7.82;7.13;;;;;;;17.56;69.77;94959.81;5117986;28;20183;-66
2022/05/18 08:29:25;;;;;;;7.78;7.07;;;;;;;17.58;69.63;94967.78;5118194;28;20244;-66
2022/05/18 08:31:52;;;;;;;8.68;7.88;;;;;;;17.60;70.46;94966.16;5116217;28;20223;-66
2022/05/18 08:34:19;;;;;;;8.27;7.47;;;;;;;17.62;69.14;94963.00;5118172;28;20188;-66
2022/05/18 08:36:46;;;;;;;8.38;7.60;;;;;;;17.67;68.45;94959.78;5116985;28;20219;-66
2022/05/18 08:39:13;;;;;;;7.15;6.55;;;;;;;17.75;67.49;94959.38;5117698;28;20611;-66
2022/05/18 08:41:43;;;;;;;7.38;6.78;;;;;;;17.87;67.35;94955.41;5116688;28;20666;-66
2022/05/18 08:44:10;;;;;;;7.75;7.05;;;;;;;18.02;67.12;94959.72;5117089;28;20207;-66
2022/05/18 08:46:44;;;;;;;8.68;7.55;;;;;;;18.20;67.03;94954.09;5116962;28;20203;-66
2022/05/18 08:49:14;;;;;;;7.28;6.78;;;;;;;18.39;68.92;94952.00;5117121;28;20218;-66
2022/05/18 08:51:49;;;;;;;7.78;7.18;;;;;;;18.48;66.34;94952.34;5116937;28;20223;-66
2022/05/18 08:54:33;;;;;;;7.35;6.78;;;;;;;18.52;65.03;94951.16;5117373;28;20570;-66
2022/05/18 08:57:00;;;;;;;7.65;6.93;;;;;;;18.58;65.11;94945.91;5117845;28;20196;-66
2022/05/18 08:59:33;;;;;;;7.47;6.78;;;;;;;18.55;64.47;94937.56;5117796;28;20203;-66
2022/05/18 09:02:05;;;;;;;7.90;7.10;;;;;;;18.50;64.98;94933.19;5117397;28;20180;-66
2022/05/18 09:04:41;;;;;;;9.25;7.72;;;;;;;18.44;65.46;94932.81;5116243;28;20200;-66
2022/05/18 09:07:11;;;;;;;7.47;6.78;;;;;;;18.38;65.98;94940.06;5117624;28;20190;-66
2022/05/18 09:12:27;;;;;;;9.23;7.93;;;;;;;18.62;64.46;94932.72;5117144;28;20494;-66
2022/05/18 09:14:55;;;;;;;9.10;6.47;;;;;;;18.87;64.98;94927.00;5116348;28;20192;-66
2022/05/18 09:17:31;;;;;;;10.40;6.53;;;;;;;19.03;63.44;94920.91;5117266;28;20196;-66
2022/05/18 09:20:12;;;;;;;9.45;6.25;;;;;;;19.07;62.06;94927.28;5117220;28;20191;-66
2022/05/18 09:22:51;;;;;;;6.35;5.85;;;;;;;19.09;61.60;94922.03;5116445;28;20191;-66
2022/05/18 09:25:27;;;;;;;6.80;6.20;;;;;;;19.34;62.61;94921.06;5117137;28;20592;-66
2022/05/18 09:28:07;;;;;;;6.43;5.80;;;;;;;19.54;61.20;94910.09;5116542;28;20198;-66
2022/05/18 09:30:41;;;;;;;6.65;5.97;;;;;;;19.74;61.46;94910.31;5117055;28;20274;-66
2022/05/18 09:33:28;;;;;;;8.73;6.18;;;;;;;19.91;59.69;94910.09;5116936;28;20271;-66
2022/05/18 09:36:13;;;;;;;6.97;5.90;;;;;;;19.90;59.16;94910.53;5117036;28;20228;-66
2022/05/18 09:38:43;;;;;;;5.18;4.80;;;;;;;20.00;58.73;94914.41;5116592;28;20626;-66
2022/05/18 09:41:13;;;;;;;5.50;5.00;;;;;;;20.04;57.60;94904.75;5116643;28;20239;-66
2022/05/18 09:43:45;;;;;;;5.63;5.22;;;;;;;20.01;57.57;94911.22;5115326;28;20184;-66
2022/05/18 09:46:13;;;;;;;6.35;5.65;;;;;;;20.10;56.85;94905.88;5116481;28;20260;-66
2022/05/18 09:48:44;;;;;;;5.75;4.88;;;;;;;20.26;57.05;94912.88;5115749;28;20195;-66
2022/05/18 09:51:11;;;;;;;6.15;4.93;;;;;;;20.31;56.97;94921.63;5115555;28;20231;-66
2022/05/18 09:53:39;;;;;;;5.97;5.22;;;;;;;20.43;57.70;94909.84;5115880;28;20202;-66
2022/05/18 09:56:09;;;;;;;5.47;5.07;;;;;;;20.63;57.16;94907.22;5116078;28;20207;-67
2022/05/18 09:58:39;;;;;;;5.20;4.80;;;;;;;20.64;55.83;94913.63;5116376;28;20200;-66
2022/05/18 10:09:26;;;;;;;6.47;4.90;;;;;;;20.38;55.48;94934.75;5115770;28;20188;-66
2022/05/18 10:11:54;;;;;;;5.55;4.93;;;;;;;20.32;55.46;94922.41;5115723;28;20223;-66
2022/05/18 10:14:31;;;;;;;4.95;4.45;;;;;;;20.43;55.13;94932.25;5116203;28;20183;-66
2022/05/18 10:17:02;;;;;;;4.53;4.13;;;;;;;20.43;54.78;94939.88;5115921;28;20273;-67
2022/05/18 10:19:33;;;;;;;4.82;4.40;;;;;;;20.29;54.80;94932.44;5116329;28;20184;-67
2022/05/18 10:22:02;;;;;;;5.88;5.10;;;;;;;20.15;55.41;94938.22;5116317;28;20180;-66
2022/05/18 10:24:38;;;;;;;4.85;4.22;;;;;;;20.01;54.32;94946.78;5115324;28;20294;-66
2022/05/18 10:27:17;;;;;;;4.63;4.22;;;;;;;19.85;55.13;94945.34;5116345;28;20202;-66
2022/05/18 10:29:45;;;;;;;4.32;3.92;;;;;;;19.67;55.71;94951.13;5115549;28;20195;-66
2022/05/18 10:32:24;;;;;;;3.92;3.63;;;;;;;19.58;55.90;94970.38;5115709;28;20196;-66
2022/05/18 10:34:53;;;;;;;3.65;3.35;;;;;;;19.47;56.52;94958.50;5114676;28;20203;-67
2022/05/18 10:37:28;;;;;;;4.10;3.80;;;;;;;19.51;57.00;94975.25;5114780;28;20631;-66
2022/05/18 10:40:02;;;;;;;4.30;4.00;;;;;;;19.49;56.81;94982.03;5114952;28;20627;-66
2022/05/18 10:42:31;;;;;;;6.55;6.00;;;;;;;19.42;58.09;94993.28;5115137;28;20304;-66
2022/05/18 10:45:01;;;;;;;3.00;2.80;;;;;;;19.28;56.74;95000.97;5115062;28;20203;-66
2022/05/18 10:47:31;;;;;;;4.38;2.63;;;;;;;19.19;56.98;95007.84;5115077;28;20187;-66
2022/05/18 10:50:24;;;;;;;3.30;2.85;;;;;;;18.99;58.20;95013.19;5115047;28;20188;-66
2022/05/18 10:52:53;;;;;;;3.17;2.55;;;;;;;18.87;59.89;95013.63;5114659;28;20208;-66
2022/05/18 10:55:22;;;;;;;2.22;2.13;;;;;;;18.74;59.48;95013.31;5119736;28;20233;-66
2022/05/18 10:57:55;;;;;;;2.13;1.98;;;;;;;18.65;60.32;95024.09;5122819;28;20241;-66
2022/05/18 11:00:23;;;;;;;2.28;2.05;;;;;;;18.59;60.53;95036.09;5121714;28;20191;-66
2022/05/18 11:02:56;;;;;;;4.75;2.85;;;;;;;18.52;59.86;95032.13;5121632;28;20217;-66
2022/05/18 11:05:31;;;;;;;2.53;2.33;;;;;;;18.43;59.38;95037.34;5122003;28;20290;-66
2022/05/18 11:07:58;;;;;;;3.25;2.47;;;;;;;18.44;60.23;95041.72;5121514;28;20199;-66
2022/05/18 11:10:26;;;;;;;2.67;2.47;;;;;;;18.44;59.45;95052.91;5121508;28;20203;-66
2022/05/18 11:12:57;;;;;;;3.40;2.40;;;;;;;18.44;59.57;95041.72;5121169;28;20218;-66
2022/05/18 11:15:31;;;;;;;1.70;1.60;;;;;;;18.47;57.56;95054.09;5122019;28;20215;-66
2022/05/18 11:18:14;;;;;;;3.72;2.13;;;;;;;18.49;58.00;95051.69;5121435;28;20198;-66
2022/05/18 11:20:51;;;;;;;2.45;1.60;;;;;;;18.46;57.55;95050.50;5122403;28;20191;-66
2022/05/18 11:23:27;;;;;;;3.45;2.95;;;;;;;18.50;57.74;95053.28;5121534;28;20199;-66
2022/05/18 11:26:03;;;;;;;1.80;1.70;;;;;;;18.55;57.79;95060.44;5122310;28;20190;-66
2022/05/18 11:28:37;;;;;;;1.75;1.65;;;;;;;18.56;59.00;95062.06;5122537;28;20187;-66
2022/05/18 11:31:14;;;;;;;2.75;2.55;;;;;;;18.58;58.22;95062.44;5121456;28;20191;-66
2022/05/18 11:33:47;;;;;;;3.80;2.40;;;;;;;18.58;57.75;95057.63;5121958;28;20191;-66
2022/05/18 11:36:20;;;;;;;2.85;2.28;;;;;;;18.60;58.34;95066.41;5122542;27;20211;-66
2022/05/18 11:39:03;;;;;;;2.53;2.25;;;;;;;18.56;57.06;95065.66;5122033;28;20530;-66
2022/05/18 11:41:37;;;;;;;2.17;1.92;;;;;;;18.59;57.24;95070.44;5121256;28;20585;-66
2022/05/18 11:44:05;;;;;;;1.67;1.30;;;;;;;18.49;56.15;95076.84;5121312;28;20191;-66
2022/05/18 11:46:42;;;;;;;1.40;1.10;;;;;;;18.47;55.90;95077.22;5121354;28;20281;-66
2022/05/18 11:49:17;;;;;;;2.00;1.50;;;;;;;18.50;56.52;95084.81;5121490;28;20198;-66
2022/05/18 11:51:58;;;;;;;1.50;1.40;;;;;;;18.52;57.22;95085.22;5122100;28;20211;-66
2022/05/18 11:54:36;;;;;;;1.27;1.17;;;;;;;18.53;57.84;95094.38;5121020;28;20200;-66
2022/05/18 11:57:11;;;;;;;1.30;1.27;;;;;;;18.49;58.75;95099.19;5122420;27;20195;-66
2022/05/18 11:59:57;;;;;;;1.50;1.40;;;;;;;18.48;59.36;95100.34;5121399;28;20199;-66
2022/05/18 12:02:40;;;;;;;1.73;1.55;;;;;;;18.45;59.44;95106.78;5121382;28;20226;-66